Time,TemperatureF,DewpointF,PressureIn,WindDirection,WindDirectionDegrees,WindSpeedMPH,WindSpeedGustMPH,Humidity,HourlyPrecipIn,Conditions,Clouds,dailyrainin,SoftwareType,DateUTC
2013-10-10 00:03:00,56.5,55.1,30.11,WNW,300,0.0,0.0,95,0.00,,,0.00,Wunderground v.1.15,2013-10-10 04:03:00,
2013-10-10 00:05:00,56.5,55.1,30.11,WNW,300,0.0,0.0,95,0.00,,,0.00,Wunderground v.1.15,2013-10-10 04:05:00,
2013-10-10 00:09:00,56.4,55.3,30.11,WNW,300,0.0,0.0,96,0.00,,,0.00,Wunderground v.1.15,2013-10-10 04:09:00,
2013-10-10 00:11:00,56.4,55.3,30.11,WNW,300,0.0,0.0,96,0.00,,,0.00,Wunderground v.1.15,2013-10-10 04:11:00,
2013-10-10 00:17:00,56.4,55.3,30.11,WNW,300,0.0,0.0,96,0.00,,,0.00,Wunderground v.1.15,2013-10-10 04:17:00,
2013-10-10 00:21:00,56.4,55.3,30.11,WNW,300,0.0,0.0,96,0.00,,,0.00,Wunderground v.1.15,2013-10-10 04:21:00,
2013-10-10 00:27:00,56.3,55.2,30.11,WNW,300,0.0,0.0,96,0.00,,,0.00,Wunderground v.1.15,2013-10-10 04:27:00,
2013-10-10 00:33:00,56.2,55.1,30.11,WNW,300,0.0,0.0,96,0.00,,,0.00,Wunderground v.1.15,2013-10-10 04:33:00,
2013-10-10 00:39:00,56.2,55.1,30.11,WNW,300,0.0,0.0,96,0.00,,,0.00,Wunderground v.1.15,2013-10-10 04:39:00,
2013-10-10 00:45:00,56.0,54.9,30.11,WNW,300,0.0,0.0,96,0.00,,,0.00,Wunderground v.1.15,2013-10-10 04:45:00,
2013-10-10 00:51:00,56.0,54.9,30.11,WNW,300,0.0,0.0,96,0.00,,,0.00,Wunderground v.1.15,2013-10-10 04:51:00,
2013-10-10 00:56:00,56.0,54.9,30.11,WNW,300,0.0,0.0,96,0.00,,,0.00,Wunderground v.1.15,2013-10-10 04:56:00,
2013-10-10 01:03:00,55.9,54.8,30.11,WNW,300,0.0,0.0,96,0.00,,,0.00,Wunderground v.1.15,2013-10-10 05:03:00,
2013-10-10 01:09:00,56.0,54.9,30.11,WNW,300,0.0,0.0,96,0.00,,,0.00,Wunderground v.1.15,2013-10-10 05:09:00,
2013-10-10 01:15:00,56.0,54.9,30.11,WNW,300,0.0,0.0,96,0.00,,,0.00,Wunderground v.1.15,2013-10-10 05:15:00,
2013-10-10 01:20:00,55.9,54.8,30.10,WNW,300,0.0,0.0,96,0.00,,,0.00,Wunderground v.1.15,2013-10-10 05:20:00,
2013-10-10 01:26:00,55.9,54.8,30.10,WNW,300,0.0,0.0,96,0.00,,,0.00,Wunderground v.1.15,2013-10-10 05:26:00,
2013-10-10 01:33:00,55.9,54.8,30.10,WNW,300,0.0,0.0,96,0.00,,,0.00,Wunderground v.1.15,2013-10-10 05:33:00,
2013-10-10 01:38:00,55.8,54.7,30.10,WNW,300,0.0,0.0,96,0.00,,,0.00,Wunderground v.1.15,2013-10-10 05:38:00,
2013-10-10 01:44:00,55.7,54.6,30.10,WNW,300,0.0,0.0,96,0.00,,,0.00,Wunderground v.1.15,2013-10-10 05:44:00,
2013-10-10 01:51:00,55.7,54.6,30.10,WNW,300,0.0,0.0,96,0.00,,,0.00,Wunderground v.1.15,2013-10-10 05:51:00,
2013-10-10 01:57:00,55.7,54.6,30.10,WNW,300,0.0,0.0,96,0.00,,,0.00,Wunderground v.1.15,2013-10-10 05:57:00,
2013-10-10 02:03:00,55.6,54.5,30.10,WNW,300,0.0,0.0,96,0.00,,,0.00,Wunderground v.1.15,2013-10-10 06:03:00,
2013-10-10 02:08:00,55.3,54.2,30.10,WNW,300,0.0,0.0,96,0.00,,,0.00,Wunderground v.1.15,2013-10-10 06:08:00,
2013-10-10 02:14:00,55.1,54.0,30.10,WNW,300,0.0,0.0,96,0.00,,,0.00,Wunderground v.1.15,2013-10-10 06:14:00,
2013-10-10 02:21:00,55.1,54.0,30.10,WNW,300,0.0,0.0,96,0.00,,,0.00,Wunderground v.1.15,2013-10-10 06:21:00,
2013-10-10 02:27:00,55.0,53.9,30.10,WNW,300,0.0,0.0,96,0.00,,,0.00,Wunderground v.1.15,2013-10-10 06:27:00,
2013-10-10 02:33:00,55.0,53.9,30.10,WNW,300,0.0,0.0,96,0.00,,,0.00,Wunderground v.1.15,2013-10-10 06:33:00,
2013-10-10 02:39:00,54.9,53.8,30.10,WNW,300,0.0,0.0,96,0.00,,,0.00,Wunderground v.1.15,2013-10-10 06:39:00,
2013-10-10 02:45:00,55.0,54.2,30.10,WNW,300,0.0,0.0,97,0.00,,,0.00,Wunderground v.1.15,2013-10-10 06:45:00,
2013-10-10 02:51:00,55.0,54.2,30.10,WNW,300,0.0,0.0,97,0.00,,,0.00,Wunderground v.1.15,2013-10-10 06:51:00,
2013-10-10 02:57:00,55.0,54.2,30.10,WNW,300,0.0,0.0,97,0.00,,,0.00,Wunderground v.1.15,2013-10-10 06:57:00,
2013-10-10 03:03:00,54.9,53.8,30.10,WNW,300,0.0,0.0,96,0.00,,,0.00,Wunderground v.1.15,2013-10-10 07:03:00,
2013-10-10 03:11:00,54.8,53.7,30.10,WNW,300,0.0,0.0,96,0.00,,,0.00,Wunderground v.1.15,2013-10-10 07:11:00,
2013-10-10 03:17:00,54.6,53.5,30.10,WNW,300,0.0,0.0,96,0.00,,,0.00,Wunderground v.1.15,2013-10-10 07:17:00,
2013-10-10 03:23:00,54.3,53.2,30.11,WNW,300,0.0,0.0,96,0.00,,,0.00,Wunderground v.1.15,2013-10-10 07:23:00,
2013-10-10 03:29:00,54.1,53.0,30.10,WNW,300,0.0,0.0,96,0.00,,,0.00,Wunderground v.1.15,2013-10-10 07:29:00,
2013-10-10 03:35:00,53.8,52.7,30.10,WNW,300,0.0,0.0,96,0.00,,,0.00,Wunderground v.1.15,2013-10-10 07:35:00,
2013-10-10 03:41:00,53.6,52.5,30.10,WNW,300,0.0,0.0,96,0.00,,,0.00,Wunderground v.1.15,2013-10-10 07:41:00,
2013-10-10 03:47:00,53.5,52.4,30.10,WNW,300,0.0,0.0,96,0.00,,,0.00,Wunderground v.1.15,2013-10-10 07:47:00,
2013-10-10 03:53:00,53.4,52.3,30.10,WNW,300,0.0,0.0,96,0.00,,,0.00,Wunderground v.1.15,2013-10-10 07:53:00,
2013-10-10 03:59:00,53.4,52.3,30.10,WNW,300,0.0,0.0,96,0.00,,,0.00,Wunderground v.1.15,2013-10-10 07:59:00,
2013-10-10 04:05:00,53.3,52.5,30.10,WNW,300,0.0,0.0,97,0.00,,,0.00,Wunderground v.1.15,2013-10-10 08:05:00,
2013-10-10 04:11:00,53.1,52.0,30.11,WNW,300,0.0,0.0,96,0.00,,,0.00,Wunderground v.1.15,2013-10-10 08:11:00,
2013-10-10 04:17:00,53.0,51.9,30.10,WNW,300,0.0,0.0,96,0.00,,,0.00,Wunderground v.1.15,2013-10-10 08:17:00,
2013-10-10 04:23:00,53.1,52.3,30.10,WNW,300,0.0,0.0,97,0.00,,,0.00,Wunderground v.1.15,2013-10-10 08:23:00,
2013-10-10 04:29:00,53.0,52.2,30.11,WNW,300,0.0,0.0,97,0.00,,,0.00,Wunderground v.1.15,2013-10-10 08:29:00,
2013-10-10 04:35:00,53.0,52.2,30.11,WNW,300,0.0,0.0,97,0.00,,,0.00,Wunderground v.1.15,2013-10-10 08:35:00,
2013-10-10 04:41:00,53.0,52.2,30.11,WNW,300,0.0,0.0,97,0.00,,,0.00,Wunderground v.1.15,2013-10-10 08:41:00,
2013-10-10 04:47:00,53.1,52.3,30.11,WNW,300,0.0,0.0,97,0.00,,,0.00,Wunderground v.1.15,2013-10-10 08:47:00,
2013-10-10 04:52:00,53.0,52.2,30.11,WNW,300,0.0,0.0,97,0.00,,,0.00,Wunderground v.1.15,2013-10-10 08:52:00,
2013-10-10 04:59:00,53.0,52.2,30.11,WNW,300,0.0,0.0,97,0.00,,,0.00,Wunderground v.1.15,2013-10-10 08:59:00,
2013-10-10 05:05:00,52.9,52.1,30.11,WNW,300,0.0,0.0,97,0.00,,,0.00,Wunderground v.1.15,2013-10-10 09:05:00,
2013-10-10 05:10:00,52.9,52.1,30.11,WNW,300,0.0,0.0,97,0.00,,,0.00,Wunderground v.1.15,2013-10-10 09:10:00,
2013-10-10 05:17:00,52.8,52.0,30.11,WNW,300,0.0,0.0,97,0.00,,,0.00,Wunderground v.1.15,2013-10-10 09:17:00,
2013-10-10 05:23:00,52.8,52.0,30.11,WNW,300,0.0,0.0,97,0.00,,,0.00,Wunderground v.1.15,2013-10-10 09:23:00,
2013-10-10 05:29:00,52.7,51.9,30.11,WNW,300,0.0,0.0,97,0.00,,,0.00,Wunderground v.1.15,2013-10-10 09:29:00,
2013-10-10 05:34:00,52.6,51.8,30.11,WNW,300,0.0,0.0,97,0.00,,,0.00,Wunderground v.1.15,2013-10-10 09:34:00,
2013-10-10 05:40:00,52.4,51.6,30.12,WNW,300,0.0,0.0,97,0.00,,,0.00,Wunderground v.1.15,2013-10-10 09:40:00,
2013-10-10 05:47:00,52.3,51.5,30.11,WNW,300,0.0,0.0,97,0.00,,,0.00,Wunderground v.1.15,2013-10-10 09:47:00,
2013-10-10 05:53:00,52.3,51.5,30.11,WNW,300,0.0,0.0,97,0.00,,,0.00,Wunderground v.1.15,2013-10-10 09:53:00,
2013-10-10 05:59:00,52.3,51.5,30.11,WNW,300,0.0,0.0,97,0.00,,,0.00,Wunderground v.1.15,2013-10-10 09:59:00,
2013-10-10 06:05:00,52.2,51.4,30.12,WNW,300,0.0,0.0,97,0.00,,,0.00,Wunderground v.1.15,2013-10-10 10:05:00,
2013-10-10 06:10:00,52.2,51.4,30.11,WNW,300,0.0,0.0,97,0.00,,,0.00,Wunderground v.1.15,2013-10-10 10:10:00,
2013-10-10 06:16:00,52.1,51.3,30.12,WNW,300,0.0,0.0,97,0.00,,,0.00,Wunderground v.1.15,2013-10-10 10:16:00,
2013-10-10 06:22:00,52.0,51.2,30.12,WNW,300,0.0,0.0,97,0.00,,,0.00,Wunderground v.1.15,2013-10-10 10:22:00,
2013-10-10 06:28:00,51.8,51.0,30.12,WNW,300,0.0,0.0,97,0.00,,,0.00,Wunderground v.1.15,2013-10-10 10:28:00,
2013-10-10 06:34:00,51.7,50.9,30.12,WNW,300,0.0,0.0,97,0.00,,,0.00,Wunderground v.1.15,2013-10-10 10:34:00,
2013-10-10 06:41:00,51.7,50.9,30.13,WNW,300,0.0,0.0,97,0.00,,,0.00,Wunderground v.1.15,2013-10-10 10:41:00,
2013-10-10 06:47:00,51.6,50.8,30.13,WNW,300,0.0,0.0,97,0.00,,,0.00,Wunderground v.1.15,2013-10-10 10:47:00,
2013-10-10 06:53:00,51.6,50.8,30.13,WNW,300,0.0,0.0,97,0.00,,,0.00,Wunderground v.1.15,2013-10-10 10:53:00,
2013-10-10 06:59:00,51.5,50.7,30.12,WNW,300,0.0,0.0,97,0.00,,,0.00,Wunderground v.1.15,2013-10-10 10:59:00,
2013-10-10 07:05:00,51.4,50.6,30.13,WNW,300,0.0,0.0,97,0.00,,,0.00,Wunderground v.1.15,2013-10-10 11:05:00,
2013-10-10 07:11:00,51.6,50.8,30.13,WNW,300,0.0,0.0,97,0.00,,,0.00,Wunderground v.1.15,2013-10-10 11:11:00,
2013-10-10 07:17:00,51.6,50.8,30.13,WNW,300,0.0,0.0,97,0.00,,,0.00,Wunderground v.1.15,2013-10-10 11:17:00,
2013-10-10 07:23:00,51.7,50.9,30.13,WNW,300,0.0,0.0,97,0.00,,,0.00,Wunderground v.1.15,2013-10-10 11:23:00,
2013-10-10 07:29:00,51.8,51.0,30.13,WNW,300,0.0,0.0,97,0.00,,,0.00,Wunderground v.1.15,2013-10-10 11:29:00,
2013-10-10 07:35:00,51.9,51.1,30.13,WNW,300,0.0,0.0,97,0.00,,,0.00,Wunderground v.1.15,2013-10-10 11:35:00,
2013-10-10 07:41:00,51.7,50.9,30.13,WNW,300,0.0,0.0,97,0.00,,,0.00,Wunderground v.1.15,2013-10-10 11:41:00,
2013-10-10 07:47:00,51.8,51.0,30.13,WNW,300,0.0,0.0,97,0.00,,,0.00,Wunderground v.1.15,2013-10-10 11:47:00,
2013-10-10 07:53:00,51.8,51.0,30.13,WNW,300,0.0,0.0,97,0.00,,,0.00,Wunderground v.1.15,2013-10-10 11:53:00,
2013-10-10 07:59:00,51.7,50.9,30.13,WNW,300,0.0,0.0,97,0.00,,,0.00,Wunderground v.1.15,2013-10-10 11:59:00,
2013-10-10 08:05:00,51.7,50.9,30.13,WNW,300,0.0,0.0,97,0.00,,,0.00,Wunderground v.1.15,2013-10-10 12:05:00,
2013-10-10 08:11:00,51.7,50.9,30.13,WNW,300,0.0,0.0,97,0.00,,,0.00,Wunderground v.1.15,2013-10-10 12:11:00,
2013-10-10 08:17:00,51.8,51.0,30.13,WNW,300,0.0,0.0,97,0.00,,,0.00,Wunderground v.1.15,2013-10-10 12:17:00,
2013-10-10 08:23:00,51.8,51.0,30.13,WNW,300,0.0,0.0,97,0.00,,,0.00,Wunderground v.1.15,2013-10-10 12:23:00,
2013-10-10 08:29:00,51.8,51.0,30.13,WNW,300,0.0,0.0,97,0.00,,,0.00,Wunderground v.1.15,2013-10-10 12:29:00,
2013-10-10 08:35:00,52.1,51.3,30.13,WNW,300,0.0,0.0,97,0.00,,,0.00,Wunderground v.1.15,2013-10-10 12:35:00,
2013-10-10 08:41:00,52.5,51.7,30.13,WNW,300,0.0,0.0,97,0.00,,,0.00,Wunderground v.1.15,2013-10-10 12:41:00,
2013-10-10 08:47:00,52.9,52.1,30.14,WNW,300,0.0,0.0,97,0.00,,,0.00,Wunderground v.1.15,2013-10-10 12:47:00,
2013-10-10 08:53:00,53.6,53.0,30.14,WNW,300,0.0,0.0,98,0.00,,,0.00,Wunderground v.1.15,2013-10-10 12:53:00,
2013-10-10 08:59:00,54.2,53.6,30.14,WNW,300,0.0,0.0,98,0.00,,,0.00,Wunderground v.1.15,2013-10-10 12:59:00,
2013-10-10 09:05:00,54.7,54.1,30.14,WNW,300,0.0,0.0,98,0.00,,,0.00,Wunderground v.1.15,2013-10-10 13:05:00,
2013-10-10 09:11:00,55.2,54.4,30.14,WNW,300,0.0,1.0,97,0.00,,,0.00,Wunderground v.1.15,2013-10-10 13:11:00,
2013-10-10 09:17:00,55.7,54.9,30.14,WNW,300,0.0,1.0,97,0.00,,,0.00,Wunderground v.1.15,2013-10-10 13:17:00,
2013-10-10 09:23:00,56.2,55.4,30.14,WNW,302,0.0,1.0,97,0.00,,,0.00,Wunderground v.1.15,2013-10-10 13:23:00,
2013-10-10 09:29:00,56.6,55.2,30.14,WNW,302,1.0,2.0,95,0.00,,,0.00,Wunderground v.1.15,2013-10-10 13:29:00,
2013-10-10 09:35:00,57.0,55.3,30.14,NW,306,1.0,2.0,94,0.00,,,0.00,Wunderground v.1.15,2013-10-10 13:35:00,
2013-10-10 09:41:00,57.5,55.2,30.15,WNW,302,1.0,2.0,92,0.00,,,0.00,Wunderground v.1.15,2013-10-10 13:41:00,
2013-10-10 09:47:00,58.2,55.9,30.15,WNW,302,1.0,2.0,92,0.00,,,0.00,Wunderground v.1.15,2013-10-10 13:47:00,
2013-10-10 09:53:00,58.9,56.0,30.15,WNW,302,1.0,3.0,90,0.00,,,0.00,Wunderground v.1.15,2013-10-10 13:53:00,
2013-10-10 09:59:00,59.6,56.7,30.15,ENE,63,1.0,3.0,90,0.00,,,0.00,Wunderground v.1.15,2013-10-10 13:59:00,
2013-10-10 10:05:00,60.0,56.4,30.15,ESE,109,2.0,3.0,88,0.00,,,0.00,Wunderground v.1.15,2013-10-10 14:05:00,
2013-10-10 10:11:00,60.5,56.6,30.15,ESE,109,2.0,2.0,87,0.00,,,0.00,Wunderground v.1.15,2013-10-10 14:11:00,
2013-10-10 10:17:00,61.1,57.2,30.15,ESE,109,1.0,2.0,87,0.00,,,0.00,Wunderground v.1.15,2013-10-10 14:17:00,
2013-10-10 10:23:00,61.6,56.7,30.15,ESE,109,1.0,2.0,84,0.00,,,0.00,Wunderground v.1.15,2013-10-10 14:23:00,
2013-10-10 10:29:00,61.9,56.7,30.15,ESE,109,1.0,2.0,83,0.00,,,0.00,Wunderground v.1.15,2013-10-10 14:29:00,
2013-10-10 10:35:00,62.2,57.0,30.15,ESE,109,1.0,2.0,83,0.00,,,0.00,Wunderground v.1.15,2013-10-10 14:35:00,
2013-10-10 10:41:00,62.7,57.8,30.15,ESE,109,1.0,2.0,84,0.00,,,0.00,Wunderground v.1.15,2013-10-10 14:41:00,
2013-10-10 10:47:00,63.4,58.1,30.15,ESE,109,1.0,2.0,83,0.00,,,0.00,Wunderground v.1.15,2013-10-10 14:47:00,
2013-10-10 10:53:00,64.1,58.8,30.15,ESE,109,0.0,2.0,83,0.00,,,0.00,Wunderground v.1.15,2013-10-10 14:53:00,
2013-10-10 10:59:00,64.9,59.9,30.16,ESE,109,1.0,2.0,84,0.00,,,0.00,Wunderground v.1.15,2013-10-10 14:59:00,
2013-10-10 11:05:00,65.9,60.2,30.15,ESE,109,1.0,2.0,82,0.00,,,0.00,Wunderground v.1.15,2013-10-10 15:05:00,
2013-10-10 11:11:00,66.5,60.8,30.15,ESE,109,1.0,1.0,82,0.00,,,0.00,Wunderground v.1.15,2013-10-10 15:11:00,
2013-10-10 11:17:00,67.2,60.8,30.15,ESE,109,1.0,2.0,80,0.00,,,0.00,Wunderground v.1.15,2013-10-10 15:17:00,
2013-10-10 11:22:00,67.9,60.8,30.15,ESE,109,1.0,1.0,78,0.00,,,0.00,Wunderground v.1.15,2013-10-10 15:22:00,
2013-10-10 11:29:00,68.5,60.6,30.15,ESE,109,1.0,1.0,76,0.00,,,0.00,Wunderground v.1.15,2013-10-10 15:29:00,
2013-10-10 11:34:00,69.2,62.0,30.15,ESE,109,0.0,1.0,78,0.00,,,0.00,Wunderground v.1.15,2013-10-10 15:34:00,
2013-10-10 11:40:00,69.9,61.2,30.14,ESE,109,0.0,0.0,74,0.00,,,0.00,Wunderground v.1.15,2013-10-10 15:40:00,
2013-10-10 11:47:00,70.5,61.4,30.14,ESE,109,0.0,0.0,73,0.00,,,0.00,Wunderground v.1.15,2013-10-10 15:47:00,
2013-10-10 11:52:00,71.1,62.0,30.14,ESE,109,0.0,0.0,73,0.00,,,0.00,Wunderground v.1.15,2013-10-10 15:52:00,
2013-10-10 11:59:00,71.6,61.3,30.15,ESE,109,1.0,2.0,70,0.00,,,0.00,Wunderground v.1.15,2013-10-10 15:59:00,
2013-10-10 12:04:00,71.9,61.2,30.14,ESE,110,1.0,2.0,69,0.00,,,0.00,Wunderground v.1.15,2013-10-10 16:04:00,
2013-10-10 12:10:00,72.3,62.4,30.14,ESE,111,1.0,3.0,71,0.00,,,0.00,Wunderground v.1.15,2013-10-10 16:10:00,
2013-10-10 12:17:00,72.6,61.4,30.14,ESE,111,1.0,3.0,68,0.00,,,0.00,Wunderground v.1.15,2013-10-10 16:17:00,
2013-10-10 12:23:00,72.5,61.3,30.14,SSW,194,2.0,2.0,68,0.00,,,0.00,Wunderground v.1.15,2013-10-10 16:23:00,
2013-10-10 12:29:00,72.4,61.2,30.13,SSW,194,1.0,2.0,68,0.00,,,0.00,Wunderground v.1.15,2013-10-10 16:29:00,
2013-10-10 12:35:00,72.4,61.2,30.13,SSW,194,0.0,0.0,68,0.00,,,0.00,Wunderground v.1.15,2013-10-10 16:35:00,
2013-10-10 12:40:00,72.2,60.2,30.13,NE,55,1.0,1.0,66,0.00,,,0.00,Wunderground v.1.15,2013-10-10 16:40:00,
2013-10-10 12:46:00,72.4,60.8,30.13,NE,54,2.0,2.0,67,0.00,,,0.00,Wunderground v.1.15,2013-10-10 16:46:00,
2013-10-10 12:53:00,72.5,61.7,30.13,NE,54,1.0,2.0,69,0.00,,,0.00,Wunderground v.1.15,2013-10-10 16:53:00,
2013-10-10 12:59:00,72.8,60.8,30.13,NE,51,2.0,4.0,66,0.00,,,0.00,Wunderground v.1.15,2013-10-10 16:59:00,
2013-10-10 13:04:00,72.6,59.7,30.13,NE,51,2.0,4.0,64,0.00,,,0.00,Wunderground v.1.15,2013-10-10 17:04:00,
2013-10-10 13:11:00,72.6,61.4,30.12,ENE,59,1.0,1.0,68,0.00,,,0.00,Wunderground v.1.15,2013-10-10 17:11:00,
2013-10-10 13:17:00,73.2,62.0,30.12,ENE,59,1.0,3.0,68,0.00,,,0.00,Wunderground v.1.15,2013-10-10 17:17:00,
2013-10-10 13:23:00,73.5,62.3,30.12,ENE,58,1.0,1.0,68,0.00,,,0.00,Wunderground v.1.15,2013-10-10 17:23:00,
2013-10-10 13:29:00,73.9,61.4,30.12,ENE,57,1.0,3.0,65,0.00,,,0.00,Wunderground v.1.15,2013-10-10 17:29:00,
2013-10-10 13:34:00,73.8,61.7,30.12,NE,56,2.0,4.0,66,0.00,,,0.00,Wunderground v.1.15,2013-10-10 17:34:00,
2013-10-10 13:41:00,73.8,62.2,30.11,NE,55,3.0,3.0,67,0.00,,,0.00,Wunderground v.1.15,2013-10-10 17:41:00,
2013-10-10 13:47:00,73.8,61.3,30.11,NE,55,2.0,4.0,65,0.00,,,0.00,Wunderground v.1.15,2013-10-10 17:47:00,
2013-10-10 13:53:00,73.8,60.9,30.11,NE,55,1.0,3.0,64,0.00,,,0.00,Wunderground v.1.15,2013-10-10 17:53:00,
2013-10-10 13:59:00,73.8,62.2,30.10,East,84,2.0,3.0,67,0.00,,,0.00,Wunderground v.1.15,2013-10-10 17:59:00,
2013-10-10 14:05:00,73.9,61.0,30.10,ENE,67,2.0,2.0,64,0.00,,,0.00,Wunderground v.1.15,2013-10-10 18:05:00,
2013-10-10 14:11:00,74.0,61.5,30.10,East,101,2.0,2.0,65,0.00,,,0.00,Wunderground v.1.15,2013-10-10 18:11:00,
2013-10-10 14:17:00,74.0,60.6,30.10,East,101,1.0,2.0,63,0.00,,,0.00,Wunderground v.1.15,2013-10-10 18:17:00,
2013-10-10 14:23:00,73.6,59.8,30.10,WSW,248,1.0,2.0,62,0.00,,,0.00,Wunderground v.1.15,2013-10-10 18:23:00,
2013-10-10 14:29:00,73.9,59.1,30.10,NNE,24,1.0,3.0,60,0.00,,,0.00,Wunderground v.1.15,2013-10-10 18:29:00,
2013-10-10 14:35:00,74.5,60.6,30.10,NNE,13,2.0,5.0,62,0.00,,,0.00,Wunderground v.1.15,2013-10-10 18:35:00,
2013-10-10 14:41:00,74.8,60.9,30.09,NE,47,3.0,5.0,62,0.00,,,0.00,Wunderground v.1.15,2013-10-10 18:41:00,
2013-10-10 14:47:00,74.5,61.5,30.09,NE,53,4.0,5.0,64,0.00,,,0.00,Wunderground v.1.15,2013-10-10 18:47:00,
2013-10-10 14:53:00,74.2,60.8,30.09,ENE,58,3.0,4.0,63,0.00,,,0.00,Wunderground v.1.15,2013-10-10 18:53:00,
2013-10-10 14:59:00,73.8,60.9,30.09,ENE,58,1.0,4.0,64,0.00,,,0.00,Wunderground v.1.15,2013-10-10 18:59:00,
2013-10-10 15:05:00,73.1,61.1,30.09,ENE,58,0.0,1.0,66,0.00,,,0.00,Wunderground v.1.15,2013-10-10 19:05:00,
2013-10-10 15:11:00,72.5,59.6,30.08,ENE,62,2.0,2.0,64,0.00,,,0.00,Wunderground v.1.15,2013-10-10 19:11:00,
2013-10-10 15:16:00,72.4,60.4,30.08,ENE,62,1.0,2.0,66,0.00,,,0.00,Wunderground v.1.15,2013-10-10 19:16:00,
2013-10-10 15:23:00,72.9,60.4,30.08,ENE,62,0.0,0.0,65,0.00,,,0.00,Wunderground v.1.15,2013-10-10 19:23:00,
2013-10-10 15:28:00,74.1,61.1,30.08,ENE,62,0.0,2.0,64,0.00,,,0.00,Wunderground v.1.15,2013-10-10 19:28:00,
2013-10-10 15:35:00,74.7,61.3,30.08,ENE,62,2.0,3.0,63,0.00,,,0.00,Wunderground v.1.15,2013-10-10 19:35:00,
2013-10-10 15:41:00,75.0,61.5,30.08,ENE,58,2.0,2.0,63,0.00,,,0.00,Wunderground v.1.15,2013-10-10 19:41:00,
2013-10-10 15:46:00,75.4,62.4,30.07,ENE,58,2.0,2.0,64,0.00,,,0.00,Wunderground v.1.15,2013-10-10 19:46:00,
2013-10-10 15:53:00,75.7,60.8,30.07,ENE,61,2.0,2.0,60,0.00,,,0.00,Wunderground v.1.15,2013-10-10 19:53:00,
2013-10-10 15:58:00,75.8,59.5,30.07,ENE,58,2.0,3.0,57,0.00,,,0.00,Wunderground v.1.15,2013-10-10 19:58:00,
2013-10-10 16:05:00,75.8,59.5,30.06,NNE,33,1.0,3.0,57,0.00,,,0.00,Wunderground v.1.15,2013-10-10 20:05:00,
2013-10-10 16:11:00,76.2,60.3,30.06,East,79,1.0,3.0,58,0.00,,,0.00,Wunderground v.1.15,2013-10-10 20:11:00,
2013-10-10 16:17:00,76.1,61.2,30.06,ESE,118,2.0,5.0,60,0.00,,,0.00,Wunderground v.1.15,2013-10-10 20:17:00,
2013-10-10 16:23:00,75.8,61.8,30.05,NNE,28,3.0,6.0,62,0.00,,,0.00,Wunderground v.1.15,2013-10-10 20:23:00,
2013-10-10 16:29:00,75.5,60.6,30.05,ENE,72,4.0,8.0,60,0.00,,,0.00,Wunderground v.1.15,2013-10-10 20:29:00,
2013-10-10 16:35:00,74.9,60.1,30.05,ENE,74,4.0,4.0,60,0.00,,,0.00,Wunderground v.1.15,2013-10-10 20:35:00,
2013-10-10 16:41:00,74.3,60.0,30.05,ENE,72,3.0,3.0,61,0.00,,,0.00,Wunderground v.1.15,2013-10-10 20:41:00,
2013-10-10 16:47:00,73.7,59.4,30.05,ENE,71,2.0,3.0,61,0.00,,,0.00,Wunderground v.1.15,2013-10-10 20:47:00,
2013-10-10 16:53:00,73.1,60.2,30.05,ENE,71,1.0,1.0,64,0.00,,,0.00,Wunderground v.1.15,2013-10-10 20:53:00,
2013-10-10 16:59:00,72.5,60.1,30.04,ENE,71,0.0,1.0,65,0.00,,,0.00,Wunderground v.1.15,2013-10-10 20:59:00,
2013-10-10 17:05:00,72.1,61.4,30.04,ENE,71,0.0,0.0,69,0.00,,,0.00,Wunderground v.1.15,2013-10-10 21:05:00,
2013-10-10 17:11:00,72.2,62.3,30.04,ENE,71,0.0,0.0,71,0.00,,,0.00,Wunderground v.1.15,2013-10-10 21:11:00,
2013-10-10 17:17:00,72.6,61.8,30.04,ENE,71,1.0,3.0,69,0.00,,,0.00,Wunderground v.1.15,2013-10-10 21:17:00,
2013-10-10 17:23:00,73.0,61.4,30.04,ENE,76,2.0,3.0,67,0.00,,,0.00,Wunderground v.1.15,2013-10-10 21:23:00,
2013-10-10 17:29:00,73.2,60.3,30.05,ESE,105,3.0,5.0,64,0.00,,,0.00,Wunderground v.1.15,2013-10-10 21:29:00,
2013-10-10 17:35:00,73.1,60.2,30.05,East,98,3.0,5.0,64,0.00,,,0.00,Wunderground v.1.15,2013-10-10 21:35:00,
2013-10-10 17:41:00,73.1,61.1,30.05,East,98,1.0,3.0,66,0.00,,,0.00,Wunderground v.1.15,2013-10-10 21:41:00,
2013-10-10 17:47:00,73.1,60.6,30.04,ENE,61,1.0,6.0,65,0.00,,,0.00,Wunderground v.1.15,2013-10-10 21:47:00,
2013-10-10 17:53:00,72.9,60.4,30.04,ENE,61,1.0,3.0,65,0.00,,,0.00,Wunderground v.1.15,2013-10-10 21:53:00,
2013-10-10 17:59:00,72.8,60.3,30.04,East,91,1.0,5.0,65,0.00,,,0.00,Wunderground v.1.15,2013-10-10 21:59:00,
2013-10-10 18:05:00,72.5,60.1,30.04,East,96,1.0,1.0,65,0.00,,,0.00,Wunderground v.1.15,2013-10-10 22:05:00,
2013-10-10 18:10:00,72.4,60.4,30.04,East,96,0.0,0.0,66,0.00,,,0.00,Wunderground v.1.15,2013-10-10 22:10:00,
2013-10-10 18:17:00,72.3,60.7,30.03,East,96,0.0,0.0,67,0.00,,,0.00,Wunderground v.1.15,2013-10-10 22:17:00,
2013-10-10 18:23:00,72.0,61.3,30.04,ENE,74,0.0,0.0,69,0.00,,,0.00,Wunderground v.1.15,2013-10-10 22:23:00,
2013-10-10 18:29:00,71.5,60.4,30.04,ENE,74,0.0,0.0,68,0.00,,,0.00,Wunderground v.1.15,2013-10-10 22:29:00,
2013-10-10 18:34:00,71.0,60.3,30.04,ENE,74,0.0,0.0,69,0.00,,,0.00,Wunderground v.1.15,2013-10-10 22:34:00,
2013-10-10 18:41:00,70.6,59.9,30.04,ENE,74,0.0,0.0,69,0.00,,,0.00,Wunderground v.1.15,2013-10-10 22:41:00,
2013-10-10 18:47:00,70.2,60.0,30.04,ENE,74,0.0,0.0,70,0.00,,,0.00,Wunderground v.1.15,2013-10-10 22:47:00,
2013-10-10 18:53:00,69.8,60.0,30.04,ENE,74,0.0,0.0,71,0.00,,,0.00,Wunderground v.1.15,2013-10-10 22:53:00,
2013-10-10 18:59:00,69.3,59.9,30.03,ENE,74,0.0,0.0,72,0.00,,,0.00,Wunderground v.1.15,2013-10-10 22:59:00,
2013-10-10 19:05:00,68.8,59.8,30.03,ENE,74,0.0,0.0,73,0.00,,,0.00,Wunderground v.1.15,2013-10-10 23:05:00,
2013-10-10 19:11:00,68.1,60.2,30.03,ENE,74,0.0,0.0,76,0.00,,,0.00,Wunderground v.1.15,2013-10-10 23:11:00,
2013-10-10 19:17:00,67.6,59.8,30.03,ENE,74,0.0,0.0,76,0.00,,,0.00,Wunderground v.1.15,2013-10-10 23:17:00,
2013-10-10 19:23:00,67.0,59.2,30.03,ENE,74,0.0,0.0,76,0.00,,,0.00,Wunderground v.1.15,2013-10-10 23:23:00,
2013-10-10 19:29:00,66.4,59.3,30.03,ENE,74,0.0,0.0,78,0.00,,,0.00,Wunderground v.1.15,2013-10-10 23:29:00,
2013-10-10 19:35:00,65.8,59.1,30.04,ENE,74,0.0,0.0,79,0.00,,,0.00,Wunderground v.1.15,2013-10-10 23:35:00,
2013-10-10 19:41:00,65.2,58.5,30.04,ENE,74,0.0,0.0,79,0.00,,,0.00,Wunderground v.1.15,2013-10-10 23:41:00,
2013-10-10 19:47:00,64.7,58.7,30.04,ENE,74,0.0,0.0,81,0.00,,,0.00,Wunderground v.1.15,2013-10-10 23:47:00,
2013-10-10 19:53:00,64.1,58.8,30.03,ENE,74,0.0,0.0,83,0.00,,,0.00,Wunderground v.1.15,2013-10-10 23:53:00,
2013-10-10 19:59:00,63.6,58.7,30.03,ENE,74,0.0,0.0,84,0.00,,,0.00,Wunderground v.1.15,2013-10-10 23:59:00,
2013-10-10 20:05:00,63.2,58.6,30.03,ENE,74,0.0,0.0,85,0.00,,,0.00,Wunderground v.1.15,2013-10-11 00:05:00,
2013-10-10 20:11:00,62.9,58.3,30.04,ENE,74,0.0,0.0,85,0.00,,,0.00,Wunderground v.1.15,2013-10-11 00:11:00,
2013-10-10 20:17:00,62.7,58.5,30.04,ENE,74,0.0,0.0,86,0.00,,,0.00,Wunderground v.1.15,2013-10-11 00:17:00,
2013-10-10 20:23:00,62.4,58.2,30.03,ENE,74,0.0,0.0,86,0.00,,,0.00,Wunderground v.1.15,2013-10-11 00:23:00,
2013-10-10 20:29:00,62.2,58.3,30.04,ENE,74,0.0,0.0,87,0.00,,,0.00,Wunderground v.1.15,2013-10-11 00:29:00,
2013-10-10 20:35:00,61.9,58.3,30.03,ENE,74,0.0,0.0,88,0.00,,,0.00,Wunderground v.1.15,2013-10-11 00:35:00,
2013-10-10 20:41:00,61.5,57.9,30.04,ENE,74,0.0,0.0,88,0.00,,,0.00,Wunderground v.1.15,2013-10-11 00:41:00,
2013-10-10 20:47:00,61.2,57.9,30.04,ENE,74,0.0,0.0,89,0.00,,,0.00,Wunderground v.1.15,2013-10-11 00:47:00,
2013-10-10 20:53:00,60.8,57.5,30.04,ENE,74,0.0,0.0,89,0.00,,,0.00,Wunderground v.1.15,2013-10-11 00:53:00,
2013-10-10 20:59:00,60.5,57.2,30.04,ENE,74,0.0,0.0,89,0.00,,,0.00,Wunderground v.1.15,2013-10-11 00:59:00,
2013-10-10 21:05:00,60.2,57.3,30.04,ENE,74,0.0,0.0,90,0.00,,,0.00,Wunderground v.1.15,2013-10-11 01:05:00,
2013-10-10 21:10:00,59.9,57.0,30.04,ENE,74,0.0,0.0,90,0.00,,,0.00,Wunderground v.1.15,2013-10-11 01:10:00,
2013-10-10 21:17:00,59.7,57.1,30.04,ENE,74,0.0,0.0,91,0.00,,,0.00,Wunderground v.1.15,2013-10-11 01:17:00,
2013-10-10 21:23:00,59.5,57.2,30.04,ENE,74,0.0,0.0,92,0.00,,,0.00,Wunderground v.1.15,2013-10-11 01:23:00,
2013-10-10 21:29:00,59.4,57.1,30.04,ENE,74,0.0,0.0,92,0.00,,,0.00,Wunderground v.1.15,2013-10-11 01:29:00,
2013-10-10 21:35:00,59.3,57.3,30.04,ENE,74,0.0,0.0,93,0.00,,,0.00,Wunderground v.1.15,2013-10-11 01:35:00,
2013-10-10 21:40:00,59.2,57.2,30.04,ENE,74,0.0,0.0,93,0.00,,,0.00,Wunderground v.1.15,2013-10-11 01:40:00,
2013-10-10 21:47:00,59.0,57.0,30.04,ENE,74,0.0,0.0,93,0.00,,,0.00,Wunderground v.1.15,2013-10-11 01:47:00,
2013-10-10 21:53:00,58.7,56.7,30.04,ENE,74,0.0,0.0,93,0.00,,,0.00,Wunderground v.1.15,2013-10-11 01:53:00,
2013-10-10 21:59:00,58.5,56.5,30.04,ENE,74,0.0,0.0,93,0.00,,,0.00,Wunderground v.1.15,2013-10-11 01:59:00,
2013-10-10 22:05:00,58.4,56.7,30.04,ENE,74,0.0,0.0,94,0.00,,,0.00,Wunderground v.1.15,2013-10-11 02:05:00,
2013-10-10 22:11:00,58.4,56.7,30.04,ENE,74,0.0,0.0,94,0.00,,,0.00,Wunderground v.1.15,2013-10-11 02:11:00,
2013-10-10 22:17:00,58.2,56.5,30.04,ENE,74,0.0,0.0,94,0.00,,,0.00,Wunderground v.1.15,2013-10-11 02:17:00,
2013-10-10 22:23:00,58.1,56.4,30.04,ENE,74,0.0,0.0,94,0.00,,,0.00,Wunderground v.1.15,2013-10-11 02:23:00,
2013-10-10 22:29:00,58.0,56.3,30.04,ENE,74,0.0,0.0,94,0.00,,,0.00,Wunderground v.1.15,2013-10-11 02:29:00,
2013-10-10 22:35:00,57.9,56.2,30.04,ENE,74,0.0,0.0,94,0.00,,,0.00,Wunderground v.1.15,2013-10-11 02:35:00,
2013-10-10 22:40:00,57.7,56.0,30.04,ENE,74,0.0,0.0,94,0.00,,,0.00,Wunderground v.1.15,2013-10-11 02:40:00,
2013-10-10 22:47:00,57.7,56.0,30.04,ENE,74,0.0,0.0,94,0.00,,,0.00,Wunderground v.1.15,2013-10-11 02:47:00,
2013-10-10 22:53:00,57.6,56.2,30.04,ENE,74,0.0,0.0,95,0.00,,,0.00,Wunderground v.1.15,2013-10-11 02:53:00,
2013-10-10 22:59:00,57.5,55.8,30.04,ENE,74,0.0,0.0,94,0.00,,,0.00,Wunderground v.1.15,2013-10-11 02:59:00,
2013-10-10 23:05:00,57.3,55.6,30.04,ENE,74,0.0,0.0,94,0.00,,,0.00,Wunderground v.1.15,2013-10-11 03:05:00,
2013-10-10 23:11:00,57.2,55.8,30.04,ENE,74,0.0,0.0,95,0.00,,,0.00,Wunderground v.1.15,2013-10-11 03:11:00,
2013-10-10 23:17:00,57.2,55.8,30.04,ENE,74,0.0,0.0,95,0.00,,,0.00,Wunderground v.1.15,2013-10-11 03:17:00,
2013-10-10 23:23:00,57.2,55.8,30.04,ENE,74,0.0,0.0,95,0.00,,,0.00,Wunderground v.1.15,2013-10-11 03:23:00,
2013-10-10 23:29:00,57.2,55.8,30.03,ENE,74,0.0,0.0,95,0.00,,,0.00,Wunderground v.1.15,2013-10-11 03:29:00,
2013-10-10 23:34:00,57.1,55.7,30.03,ENE,74,0.0,0.0,95,0.00,,,0.00,Wunderground v.1.15,2013-10-11 03:34:00,
2013-10-10 23:41:00,57.1,55.7,30.03,ENE,74,0.0,0.0,95,0.00,,,0.00,Wunderground v.1.15,2013-10-11 03:41:00,
2013-10-10 23:47:00,57.0,55.6,30.03,ENE,74,0.0,0.0,95,0.00,,,0.00,Wunderground v.1.15,2013-10-11 03:47:00,
2013-10-10 23:53:00,56.9,55.5,30.03,ENE,74,0.0,0.0,95,0.00,,,0.00,Wunderground v.1.15,2013-10-11 03:53:00,
2013-10-10 23:59:00,56.8,55.4,30.03,ENE,74,0.0,0.0,95,0.00,,,0.00,Wunderground v.1.15,2013-10-11 03:59:00,